Weather Data

Pearl Creek Farm: 8878 N Farm Road 75, Walnut Grove MO 65770

<== Previous Day (Monday 14 Mar 2011) | Next Day (Wednesday 16 Mar 2011) ==>

Summary Precipitation Data For Tuesday 15 March 2011

ElementValueUnits
Precipitation0.06"
NotesSome of this fell as very wet snow (mainly between 5pm and 8pm) or sleet but no visible snow or sleet stuck to the ground.
SourcePearl Creek Farm

Summary Temperature Data For Tuesday 15 March 2011

ElementValueUnits
High Temperature53 oF
Low Temperature32 oF
Average Temperature40 oF
High Humidity100 %
Low Humidity47 %
Average Humidity78 %
SourceSpringfield-Branson National Airport (SGF)

Detail Temperature Data For Tuesday 15 March 2011

Date / TimeTemp (F)RH (%)Dew Pt (F)Report Date / TimeSource
2011-03-15 03:52:00 33 96 32.0 2017-12-29 17:00:26.17417 Springfield-Branson National Airport (SGF)
2011-03-15 04:52:00 32 100 32.0 2017-12-29 17:00:26.17417 Springfield-Branson National Airport (SGF)
2011-03-15 05:52:00 32 100 32.0 2017-12-29 17:00:26.17417 Springfield-Branson National Airport (SGF)
2011-03-15 06:52:00 33 96 32.0 2017-12-29 17:00:26.17417 Springfield-Branson National Airport (SGF)
2011-03-15 07:52:00 34 97 33.0 2017-12-29 17:00:26.17417 Springfield-Branson National Airport (SGF)
2011-03-15 00:52:00 33 96 32.0 2017-12-29 17:00:26.17417 Springfield-Branson National Airport (SGF)
2011-03-15 01:52:00 33 96 32.0 2017-12-29 17:00:26.17417 Springfield-Branson National Airport (SGF)
2011-03-15 02:52:00 33 96 32.0 2017-12-29 17:00:26.17417 Springfield-Branson National Airport (SGF)
2011-03-15 08:52:00 37 89 34.0 2017-12-29 17:00:26.17417 Springfield-Branson National Airport (SGF)
2011-03-15 09:52:00 40 79 34.0 2017-12-29 17:00:26.17417 Springfield-Branson National Airport (SGF)
2011-03-15 10:52:00 44 73 36.0 2017-12-29 17:00:26.17417 Springfield-Branson National Airport (SGF)
2011-03-15 11:52:00 47 66 36.0 2017-12-29 17:00:26.17417 Springfield-Branson National Airport (SGF)
2011-03-15 12:52:00 49 59 35.0 2017-12-29 17:00:26.17417 Springfield-Branson National Airport (SGF)
2011-03-15 13:52:00 51 52 34.0 2017-12-29 17:00:26.17417 Springfield-Branson National Airport (SGF)
2011-03-15 14:52:00 53 48 34.0 2017-12-29 17:00:26.17417 Springfield-Branson National Airport (SGF)
2011-03-15 15:52:00 53 47 33.0 2017-12-29 17:00:26.17417 Springfield-Branson National Airport (SGF)
2011-03-15 16:52:00 51 50 33.0 2017-12-29 17:00:26.17417 Springfield-Branson National Airport (SGF)
2011-03-15 17:52:00 50 50 32.0 2017-12-29 17:00:26.17417 Springfield-Branson National Airport (SGF)
2011-03-15 18:52:00 43 63 31.0 2017-12-29 17:00:26.17417 Springfield-Branson National Airport (SGF)
2011-03-15 19:52:00 38 76 31.0 2017-12-29 17:00:26.17417 Springfield-Branson National Airport (SGF)
2011-03-15 20:52:00 35 82 30.0 2017-12-29 17:00:26.17417 Springfield-Branson National Airport (SGF)
2011-03-15 21:52:00 36 82 31.0 2017-12-29 17:00:26.17417 Springfield-Branson National Airport (SGF)
2011-03-15 22:52:00 34 85 30.0 2017-12-29 17:00:26.17417 Springfield-Branson National Airport (SGF)
2011-03-15 23:52:00 33 85 29.0 2017-12-29 17:00:26.17417 Springfield-Branson National Airport (SGF)

A total of 24 rows are displayed.